createdAt,value
2019-01-02T00:00:32.686Z,74.53
2019-01-02T00:01:31.404Z,74.40
2019-01-02T00:02:31.403Z,74.53
2019-01-02T00:03:31.400Z,74.29
2019-01-02T00:04:31.374Z,75.05
2019-01-02T00:05:31.361Z,74.63
2019-01-02T00:06:31.351Z,74.84
2019-01-02T00:07:31.345Z,75.46
2019-01-02T00:08:31.337Z,75.46
2019-01-02T00:09:31.341Z,75.26
2019-01-02T00:10:31.324Z,75.26
2019-01-02T00:11:31.303Z,75.15
2019-01-02T00:12:31.290Z,75.05
2019-01-02T00:13:31.282Z,75.15
2019-01-02T00:14:31.275Z,75.46
2019-01-02T00:15:31.283Z,74.84
2019-01-02T00:16:31.246Z,75.26
2019-01-02T00:17:31.278Z,75.26
2019-01-02T00:18:31.221Z,75.40
2019-01-02T00:19:31.216Z,75.15
2019-01-02T00:20:31.205Z,75.19
2019-01-02T00:21:31.194Z,75.36
2019-01-02T00:22:31.184Z,75.19
2019-01-02T00:23:31.181Z,74.84
2019-01-02T00:24:31.163Z,74.67
2019-01-02T00:25:31.151Z,75.50
2019-01-02T00:26:31.136Z,75.40
2019-01-02T00:27:31.130Z,75.50
2019-01-02T00:28:31.124Z,74.67
2019-01-02T00:29:31.113Z,75.81
2019-01-02T00:30:31.099Z,75.60
2019-01-02T00:31:31.094Z,75.50
2019-01-02T00:32:31.076Z,76.85
2019-01-02T00:33:31.070Z,76.64
2019-01-02T00:34:31.051Z,75.09
2019-01-02T00:35:31.039Z,75.60
2019-01-02T00:36:31.030Z,76.75
2019-01-02T00:37:31.017Z,76.64
2019-01-02T00:38:31.019Z,76.75
2019-01-02T00:39:31.011Z,76.64
2019-01-02T00:40:30.992Z,76.23
2019-01-02T00:41:30.979Z,76.23
2019-01-02T00:42:30.975Z,76.54
2019-01-02T00:43:30.964Z,76.02
2019-01-02T00:44:30.941Z,75.60
2019-01-02T00:45:30.940Z,76.33
2019-01-02T00:46:30.925Z,76.43
2019-01-02T00:47:30.918Z,76.64
2019-01-02T00:48:30.904Z,76.43
2019-01-02T00:49:30.901Z,76.33
2019-01-02T00:50:30.893Z,76.23
2019-01-02T00:51:30.867Z,75.43
2019-01-02T00:52:30.855Z,76.57
2019-01-02T00:53:30.853Z,76.54
2019-01-02T00:54:30.835Z,76.75
2019-01-02T00:55:30.830Z,76.54
2019-01-02T00:56:30.827Z,76.54
2019-01-02T00:57:30.804Z,76.54
2019-01-02T00:58:30.805Z,76.54
2019-01-02T00:59:30.790Z,75.60
2019-01-02T01:00:30.780Z,75.54
2019-01-02T01:01:30.767Z,75.54
2019-01-02T01:02:30.760Z,75.50
2019-01-02T01:03:30.743Z,75.60
2019-01-02T01:04:30.736Z,75.40
2019-01-02T01:05:30.721Z,76.64
2019-01-02T01:06:30.709Z,75.50
2019-01-02T01:07:30.705Z,76.54
2019-01-02T01:08:30.689Z,75.60
2019-01-02T01:09:30.671Z,75.32
2019-01-02T01:10:30.669Z,76.68
2019-01-02T01:11:30.656Z,75.40
2019-01-02T01:12:30.653Z,76.43
2019-01-02T01:13:30.631Z,75.40
2019-01-02T01:14:30.624Z,75.40
2019-01-02T01:15:30.616Z,76.85
2019-01-02T01:16:30.610Z,76.54
2019-01-02T01:17:30.591Z,76.57
2019-01-02T01:18:30.583Z,75.50
2019-01-02T01:19:30.565Z,75.60
2019-01-02T01:20:30.560Z,76.89
2019-01-02T01:21:30.556Z,75.60
2019-01-02T01:22:30.538Z,76.54
2019-01-02T01:23:30.561Z,74.98
2019-01-02T01:24:30.514Z,76.64
2019-01-02T01:25:30.499Z,75.60
2019-01-02T01:26:30.494Z,75.32
2019-01-02T01:27:30.484Z,75.64
2019-01-02T01:28:30.473Z,75.50
2019-01-02T01:29:30.481Z,75.60
2019-01-02T01:30:30.452Z,75.40
2019-01-02T01:31:30.447Z,75.40
2019-01-02T01:32:30.424Z,75.64
2019-01-02T01:33:30.412Z,75.40
2019-01-02T01:34:30.417Z,75.50
2019-01-02T01:35:30.405Z,74.77
2019-01-02T01:36:30.381Z,75.29
2019-01-02T01:37:30.377Z,74.98
2019-01-02T01:38:30.363Z,74.98
2019-01-02T01:39:30.359Z,75.50
2019-01-02T01:40:30.379Z,75.71
2019-01-02T01:41:30.329Z,74.67
2019-01-02T01:42:30.319Z,74.91
2019-01-02T01:43:30.312Z,75.22
2019-01-02T01:44:30.302Z,74.98
2019-01-02T01:45:30.288Z,75.01
2019-01-02T01:46:30.319Z,75.74
2019-01-02T01:47:30.267Z,75.71
2019-01-02T01:48:30.258Z,74.80
2019-01-02T01:49:30.252Z,74.80
2019-01-02T01:50:30.230Z,74.98
2019-01-02T01:51:30.228Z,75.22
2019-01-02T01:52:30.223Z,75.22
2019-01-02T01:53:30.238Z,75.29
2019-01-02T01:54:30.190Z,75.22
2019-01-02T01:55:30.184Z,75.19
2019-01-02T01:56:30.170Z,75.22
2019-01-02T01:57:30.169Z,74.88
2019-01-02T01:58:30.150Z,75.32
2019-01-02T01:59:30.149Z,75.54
2019-01-02T02:00:30.129Z,75.40
2019-01-02T02:01:30.121Z,75.32
2019-01-02T02:02:30.133Z,75.29
2019-01-02T02:03:30.091Z,75.22
2019-01-02T02:04:30.079Z,74.77
2019-01-02T02:05:30.070Z,75.22
2019-01-02T02:06:30.061Z,75.29
2019-01-02T02:07:30.047Z,74.77
2019-01-02T02:08:30.051Z,74.57
2019-01-02T02:09:30.026Z,74.91
2019-01-02T02:10:30.016Z,74.26
2019-01-02T02:11:30.009Z,74.77
2019-01-02T02:12:30.001Z,74.60
2019-01-02T02:13:30.034Z,75.12
2019-01-02T02:14:29.974Z,74.57
2019-01-02T02:15:29.965Z,74.88
2019-01-02T02:16:29.956Z,74.70
2019-01-02T02:17:29.946Z,74.91
2019-01-02T02:18:29.977Z,75.09
2019-01-02T02:19:29.923Z,75.32
2019-01-02T02:20:29.908Z,75.22
2019-01-02T02:21:29.908Z,75.32
2019-01-02T02:22:29.894Z,74.80
2019-01-02T02:23:29.885Z,75.32
2019-01-02T02:24:29.876Z,75.22
2019-01-02T02:25:29.859Z,74.70
2019-01-02T02:26:29.844Z,75.01
2019-01-02T02:27:29.832Z,74.70
2019-01-02T02:28:29.823Z,74.88
2019-01-02T02:29:29.822Z,75.12
2019-01-02T02:30:29.813Z,74.91
2019-01-02T02:31:29.799Z,74.70
2019-01-02T02:32:29.785Z,74.70
2019-01-02T02:33:29.769Z,74.46
2019-01-02T02:34:29.769Z,74.67
2019-01-02T02:35:29.753Z,74.80
2019-01-02T02:36:29.741Z,74.49
2019-01-02T02:37:29.724Z,74.60
2019-01-02T02:38:29.718Z,74.70
2019-01-02T02:39:29.722Z,74.49
2019-01-02T02:40:29.696Z,75.01
2019-01-02T02:41:29.687Z,74.70
2019-01-02T02:42:29.673Z,74.18
2019-01-02T02:43:29.680Z,74.26
2019-01-02T02:44:29.671Z,74.46
2019-01-02T02:45:29.645Z,74.29
2019-01-02T02:46:29.628Z,74.60
2019-01-02T02:47:29.616Z,74.08
2019-01-02T02:48:29.605Z,74.49
2019-01-02T02:49:29.597Z,74.29
2019-01-02T02:50:29.657Z,74.39
2019-01-02T02:51:29.576Z,74.18
2019-01-02T02:52:29.579Z,74.29
2019-01-02T02:53:29.558Z,74.49
2019-01-02T02:54:29.542Z,74.39
2019-01-02T02:55:29.558Z,74.49
2019-01-02T02:56:29.530Z,74.60
2019-01-02T02:57:29.515Z,74.49
2019-01-02T02:58:29.503Z,74.49
2019-01-02T02:59:29.488Z,74.49
2019-01-02T03:00:29.482Z,74.39
2019-01-02T03:01:29.484Z,74.39
2019-01-02T03:02:29.461Z,74.49
2019-01-02T03:03:37.307Z,74.18
2019-01-02T03:04:29.443Z,73.35
2019-01-02T03:05:29.429Z,73.35
2019-01-02T03:06:29.429Z,74.60
2019-01-02T03:07:29.405Z,73.97
2019-01-02T03:08:29.397Z,74.39
2019-01-02T03:09:29.386Z,73.97
2019-01-02T03:10:29.369Z,73.25
2019-01-02T03:11:29.372Z,73.35
2019-01-02T03:12:29.353Z,74.60
2019-01-02T03:13:29.377Z,73.35
2019-01-02T03:14:29.327Z,73.66
2019-01-02T03:15:29.318Z,73.66
2019-01-02T03:16:29.312Z,73.77
2019-01-02T03:17:29.299Z,73.56
2019-01-02T03:18:29.295Z,73.77
2019-01-02T03:19:29.288Z,73.97
2019-01-02T03:20:29.263Z,72.83
2019-01-02T03:21:29.252Z,73.25
2019-01-02T03:22:29.245Z,73.56
2019-01-02T03:23:29.235Z,73.25
2019-01-02T03:24:29.239Z,73.25
2019-01-02T03:25:29.208Z,73.56
2019-01-02T03:26:29.207Z,72.94
2019-01-02T03:27:29.186Z,73.35
2019-01-02T03:28:29.180Z,73.11
2019-01-02T03:29:29.201Z,73.56
2019-01-02T03:30:29.155Z,73.04
2019-01-02T03:31:29.145Z,73.77
2019-01-02T03:32:29.134Z,72.83
2019-01-02T03:33:29.129Z,73.04
2019-01-02T03:34:29.117Z,72.83
2019-01-02T03:35:29.126Z,73.04
2019-01-02T03:36:29.090Z,72.94
2019-01-02T03:37:29.083Z,72.42
2019-01-02T03:38:29.068Z,72.31
2019-01-02T03:39:29.056Z,71.76
2019-01-02T03:40:29.051Z,72.00
2019-01-02T03:41:29.061Z,71.66
2019-01-02T03:42:29.027Z,71.48
2019-01-02T03:43:29.020Z,71.55
2019-01-02T03:44:29.003Z,71.76
2019-01-02T03:45:28.999Z,71.66
2019-01-02T03:46:29.000Z,71.76
2019-01-02T03:47:28.973Z,71.45
2019-01-02T03:48:28.966Z,70.83
2019-01-02T03:49:28.951Z,70.93
2019-01-02T03:50:28.942Z,70.72
2019-01-02T03:51:28.981Z,70.72
2019-01-02T03:52:28.931Z,70.62
2019-01-02T03:53:28.912Z,70.62
2019-01-02T03:54:28.901Z,70.69
2019-01-02T03:55:28.890Z,71.03
2019-01-02T03:56:28.876Z,71.14
2019-01-02T03:57:28.905Z,71.34
2019-01-02T03:58:28.853Z,71.76
2019-01-02T03:59:28.846Z,73.00
2019-01-02T04:00:28.834Z,73.22
2019-01-02T04:01:28.826Z,73.32
2019-01-02T04:02:28.835Z,74.46
2019-01-02T04:03:28.801Z,74.91
2019-01-02T04:04:28.790Z,75.54
2019-01-02T04:05:28.783Z,75.43
2019-01-02T04:06:28.775Z,75.01
2019-01-02T04:07:28.761Z,75.85
2019-01-02T04:08:28.791Z,75.46
2019-01-02T04:09:28.740Z,76.57
2019-01-02T04:10:28.729Z,75.36
2019-01-02T04:11:28.719Z,75.26
2019-01-02T04:12:28.703Z,75.36
2019-01-02T04:13:28.703Z,75.05
2019-01-02T04:14:28.710Z,75.36
2019-01-02T04:15:28.676Z,76.82
2019-01-02T04:16:28.661Z,76.72
2019-01-02T04:17:28.654Z,76.29
2019-01-02T04:18:28.644Z,76.51
2019-01-02T04:19:28.627Z,76.51
2019-01-02T04:20:28.625Z,76.61
2019-01-02T04:21:28.611Z,77.03
2019-01-02T04:22:28.600Z,76.82
2019-01-02T04:23:28.591Z,77.23
2019-01-02T04:24:28.576Z,77.55
2019-01-02T04:25:28.579Z,77.37
2019-01-02T04:26:28.598Z,77.55
2019-01-02T04:27:28.543Z,77.75
2019-01-02T04:28:28.539Z,77.16
2019-01-02T04:29:28.530Z,77.16
2019-01-02T04:30:28.518Z,76.64
2019-01-02T04:31:28.502Z,76.29
2019-01-02T04:32:28.509Z,76.54
2019-01-02T04:33:28.496Z,76.09
2019-01-02T04:34:28.470Z,76.19
2019-01-02T04:35:28.459Z,76.40
2019-01-02T04:36:28.456Z,76.29
2019-01-02T04:37:28.455Z,75.57
2019-01-02T04:38:28.428Z,75.19
2019-01-02T04:39:28.418Z,75.05
2019-01-02T04:40:28.414Z,75.40
2019-01-02T04:41:28.410Z,75.19
2019-01-02T04:42:28.387Z,74.98
2019-01-02T04:43:28.387Z,74.84
2019-01-02T04:44:28.364Z,74.22
2019-01-02T04:45:28.353Z,73.91
2019-01-02T04:46:28.354Z,73.49
2019-01-02T04:47:28.341Z,73.49
2019-01-02T04:48:28.321Z,73.07
2019-01-02T04:49:28.315Z,72.97
2019-01-02T04:50:28.300Z,72.76
2019-01-02T04:51:28.304Z,71.90
2019-01-02T04:52:28.288Z,71.90
2019-01-02T04:53:28.274Z,71.48
2019-01-02T04:54:28.256Z,71.62
2019-01-02T04:55:28.246Z,71.38
2019-01-02T04:56:28.283Z,70.34
2019-01-02T04:57:28.230Z,70.13
2019-01-02T04:58:28.221Z,70.03
2019-01-02T04:59:28.210Z,70.44
2019-01-02T05:00:28.230Z,70.13
2019-01-02T05:01:28.184Z,68.88
2019-01-02T05:02:28.182Z,69.40
2019-01-02T05:03:28.176Z,69.09
2019-01-02T05:04:28.154Z,69.20
2019-01-02T05:05:28.141Z,69.20
2019-01-02T05:06:28.135Z,68.57
2019-01-02T05:07:28.128Z,68.23
2019-01-02T05:08:28.113Z,68.02
2019-01-02T05:09:28.125Z,67.82
2019-01-02T05:10:28.092Z,68.54
2019-01-02T05:11:28.081Z,68.75
2019-01-02T05:12:28.067Z,67.71
2019-01-02T05:13:28.062Z,67.43
2019-01-02T05:14:28.042Z,67.40
2019-01-02T05:15:28.041Z,67.30
2019-01-02T05:16:28.021Z,67.30
2019-01-02T05:17:28.013Z,67.09
2019-01-02T05:18:28.023Z,66.99
2019-01-02T05:19:27.988Z,66.99
2019-01-02T05:20:27.978Z,67.09
2019-01-02T05:21:27.966Z,67.50
2019-01-02T05:22:27.960Z,67.50
2019-01-02T05:23:27.943Z,67.30
2019-01-02T05:24:27.945Z,67.06
2019-01-02T05:25:27.928Z,66.67
2019-01-02T05:26:27.913Z,66.99
2019-01-02T05:27:27.903Z,65.73
2019-01-02T05:28:27.908Z,65.73
2019-01-02T05:29:27.893Z,65.42
2019-01-02T05:30:27.869Z,66.36
2019-01-02T05:31:27.876Z,66.47
2019-01-02T05:32:27.848Z,65.63
2019-01-02T05:33:27.843Z,65.63
2019-01-02T05:34:27.843Z,65.63
2019-01-02T05:35:27.815Z,65.84
2019-01-02T05:36:27.804Z,65.94
2019-01-02T05:37:27.812Z,65.84
2019-01-02T05:38:27.783Z,65.73
2019-01-02T05:39:27.777Z,65.73
2019-01-02T05:40:27.765Z,65.73
2019-01-02T05:41:27.750Z,65.84
2019-01-02T05:42:27.743Z,65.94
2019-01-02T05:43:27.742Z,66.05
2019-01-02T05:44:27.719Z,65.94
2019-01-02T05:45:27.707Z,65.84
2019-01-02T05:46:27.702Z,66.25
2019-01-02T05:47:27.690Z,65.63
2019-01-02T05:48:27.720Z,65.73
2019-01-02T05:49:27.665Z,66.36
2019-01-02T05:50:27.657Z,66.57
2019-01-02T05:51:27.647Z,66.36
2019-01-02T05:52:27.635Z,66.78
2019-01-02T05:53:27.630Z,67.40
2019-01-02T05:54:27.626Z,67.30
2019-01-02T05:55:27.598Z,67.22
2019-01-02T05:56:27.593Z,67.40
2019-01-02T05:57:27.584Z,66.88
2019-01-02T05:58:27.569Z,67.02
2019-01-02T05:59:27.576Z,67.40
2019-01-02T06:00:27.555Z,67.09
2019-01-02T06:01:27.542Z,67.02
2019-01-02T06:02:27.528Z,66.71
2019-01-02T06:03:27.518Z,66.25
2019-01-02T06:04:27.541Z,65.84
2019-01-02T06:05:27.500Z,66.50
2019-01-02T06:06:27.485Z,65.94
2019-01-02T06:07:27.476Z,66.15
2019-01-02T06:08:27.461Z,65.42
2019-01-02T06:09:27.447Z,65.84
2019-01-02T06:10:27.550Z,66.05
2019-01-02T06:11:27.432Z,65.94
2019-01-02T06:12:27.416Z,65.53
2019-01-02T06:13:27.404Z,65.32
2019-01-02T06:14:27.400Z,64.70
2019-01-02T06:15:27.389Z,64.59
2019-01-02T06:16:27.390Z,64.39
2019-01-02T06:17:27.362Z,64.59
2019-01-02T06:18:27.355Z,64.90
2019-01-02T06:19:27.345Z,65.11
2019-01-02T06:20:27.358Z,65.19
2019-01-02T06:21:27.324Z,65.19
2019-01-02T06:22:27.316Z,65.53
2019-01-02T06:23:27.302Z,65.53
2019-01-02T06:24:27.286Z,65.84
2019-01-02T06:25:27.277Z,65.94
2019-01-02T06:26:27.279Z,66.02
2019-01-02T06:27:27.297Z,65.94
2019-01-02T06:28:27.249Z,66.05
2019-01-02T06:29:27.234Z,66.25
2019-01-02T06:30:27.223Z,66.25
2019-01-02T06:31:27.214Z,66.15
2019-01-02T06:32:27.206Z,66.36
2019-01-02T06:33:27.204Z,66.36
2019-01-02T06:34:27.183Z,66.36
2019-01-02T06:35:27.175Z,66.67
2019-01-02T06:36:27.241Z,66.88
2019-01-02T06:37:27.207Z,67.09
2019-01-02T06:38:27.141Z,67.09
2019-01-02T06:39:27.128Z,66.47
2019-01-02T06:40:27.123Z,65.73
2019-01-02T06:41:27.106Z,65.63
2019-01-02T06:42:27.098Z,65.63
2019-01-02T06:43:27.098Z,66.57
2019-01-02T06:44:27.087Z,65.97
2019-01-02T06:45:27.063Z,66.36
2019-01-02T06:46:27.060Z,66.36
2019-01-02T06:47:27.041Z,65.97
2019-01-02T06:48:27.064Z,65.42
2019-01-02T06:49:27.024Z,66.15
2019-01-02T06:50:27.017Z,67.71
2019-01-02T06:51:27.007Z,68.13
2019-01-02T06:52:26.993Z,68.30
2019-01-02T06:53:26.983Z,66.02
2019-01-02T06:54:27.006Z,65.50
2019-01-02T06:55:26.974Z,63.94
2019-01-02T06:56:26.950Z,63.87
2019-01-02T06:57:26.942Z,64.70
2019-01-02T06:58:26.923Z,65.29
2019-01-02T06:59:26.916Z,65.11
2019-01-02T07:00:26.946Z,65.63
2019-01-02T07:01:26.891Z,65.63
2019-01-02T07:02:26.888Z,65.08
2019-01-02T07:03:26.878Z,65.11
2019-01-02T07:04:26.872Z,63.97
2019-01-02T07:05:26.868Z,64.70
2019-01-02T07:06:26.869Z,65.11
2019-01-02T07:07:31.224Z,64.70
2019-01-02T07:08:26.822Z,63.97
2019-01-02T07:09:26.812Z,63.87
2019-01-02T07:10:26.803Z,64.59
2019-01-02T07:11:26.785Z,63.87
2019-01-02T07:12:26.783Z,63.45
2019-01-02T07:13:26.764Z,63.76
2019-01-02T07:14:26.792Z,63.11
2019-01-02T07:15:26.745Z,63.14
2019-01-02T07:16:26.732Z,62.83
2019-01-02T07:17:26.722Z,62.90
2019-01-02T07:18:26.718Z,62.73
2019-01-02T07:19:26.702Z,63.14
2019-01-02T07:20:26.703Z,62.70
2019-01-02T07:21:26.678Z,62.28
2019-01-02T07:22:26.709Z,62.59
2019-01-02T07:23:26.658Z,61.76
2019-01-02T07:24:26.649Z,61.45
2019-01-02T07:25:26.641Z,61.76
2019-01-02T07:26:26.631Z,61.55
2019-01-02T07:27:26.622Z,61.45
2019-01-02T07:28:26.651Z,61.45
2019-01-02T07:29:26.601Z,61.04
2019-01-02T07:30:26.582Z,61.76
2019-01-02T07:31:26.576Z,61.14
2019-01-02T07:32:26.567Z,60.83
2019-01-02T07:33:26.552Z,60.72
2019-01-02T07:34:26.552Z,60.72
2019-01-02T07:35:26.541Z,60.91
2019-01-02T07:36:26.524Z,60.62
2019-01-02T07:37:27.042Z,60.21
2019-01-02T07:38:26.502Z,61.35
2019-01-02T07:39:26.487Z,60.83
2019-01-02T07:40:26.493Z,61.24
2019-01-02T07:41:26.470Z,60.83
2019-01-02T07:42:26.454Z,60.91
2019-01-02T07:43:26.448Z,61.04
2019-01-02T07:44:29.323Z,61.24
2019-01-02T07:45:26.423Z,61.04
2019-01-02T07:46:26.427Z,61.55
2019-01-02T07:47:26.408Z,61.24
2019-01-02T07:48:26.393Z,61.24
2019-01-02T07:49:26.385Z,61.55
2019-01-02T07:50:26.372Z,61.24
2019-01-02T07:51:26.399Z,61.35
2019-01-02T07:52:26.348Z,60.70
2019-01-02T07:53:26.339Z,61.24
2019-01-02T07:54:26.327Z,61.45
2019-01-02T07:55:26.316Z,61.01
2019-01-02T07:56:26.312Z,61.35
2019-01-02T07:57:26.304Z,62.15
2019-01-02T07:58:26.290Z,60.91
2019-01-02T07:59:26.279Z,61.53
2019-01-02T08:00:26.270Z,61.74
2019-01-02T08:01:26.253Z,61.74
2019-01-02T08:02:26.262Z,61.32
2019-01-02T08:03:26.237Z,60.08
2019-01-02T08:04:26.228Z,60.08
2019-01-02T08:05:26.211Z,60.31
2019-01-02T08:06:26.201Z,60.39
2019-01-02T08:07:26.190Z,60.41
2019-01-02T08:08:26.190Z,59.87
2019-01-02T08:09:26.176Z,60.70
2019-01-02T08:10:27.410Z,60.18
2019-01-02T08:11:26.153Z,60.39
2019-01-02T08:12:26.135Z,60.72
2019-01-02T08:13:26.129Z,61.45
2019-01-02T08:14:26.127Z,61.94
2019-01-02T08:15:26.109Z,61.01
2019-01-02T08:16:26.099Z,61.11
2019-01-02T08:17:26.091Z,61.45
2019-01-02T08:18:26.072Z,61.53
2019-01-02T08:19:26.079Z,60.93
2019-01-02T08:20:26.091Z,61.66
2019-01-02T08:21:26.049Z,62.38
2019-01-02T08:22:26.031Z,62.49
2019-01-02T08:23:26.019Z,65.19
2019-01-02T08:24:26.008Z,63.84
2019-01-02T08:25:26.004Z,65.26
2019-01-02T08:26:25.995Z,62.98
2019-01-02T08:27:25.975Z,62.77
2019-01-02T08:28:25.967Z,63.42
2019-01-02T08:29:25.960Z,63.73
2019-01-02T08:30:25.983Z,63.63
2019-01-02T08:31:25.938Z,63.84
2019-01-02T08:32:25.932Z,63.94
2019-01-02T08:33:25.918Z,63.63
2019-01-02T08:34:25.902Z,64.36
2019-01-02T08:35:25.891Z,64.67
2019-01-02T08:36:25.901Z,64.70
2019-01-02T08:37:25.871Z,65.01
2019-01-02T08:38:25.859Z,64.87
2019-01-02T08:39:25.848Z,64.98
2019-01-02T08:40:25.843Z,65.11
2019-01-02T08:41:25.860Z,65.32
2019-01-02T08:42:25.822Z,64.70
2019-01-02T08:43:25.805Z,64.90
2019-01-02T08:44:25.795Z,66.99
2019-01-02T08:45:25.794Z,67.71
2019-01-02T08:46:25.777Z,67.37
2019-01-02T08:47:25.772Z,67.06
2019-01-02T08:48:25.761Z,65.81
2019-01-02T08:49:25.741Z,65.60
2019-01-02T08:50:25.739Z,65.19
2019-01-02T08:51:25.726Z,66.02
2019-01-02T08:52:25.724Z,65.39
2019-01-02T08:53:25.754Z,65.39
2019-01-02T08:54:25.688Z,65.81
2019-01-02T08:55:25.686Z,65.60
2019-01-02T08:56:25.678Z,67.47
2019-01-02T08:57:25.697Z,67.47
2019-01-02T08:58:25.646Z,66.85
2019-01-02T08:59:25.661Z,67.86
2019-01-02T09:00:25.630Z,67.13
2019-01-02T09:01:25.613Z,65.68
2019-01-02T09:02:25.607Z,65.37
2019-01-02T09:03:25.607Z,65.58
2019-01-02T09:04:25.587Z,65.50
2019-01-02T09:05:25.570Z,65.39
2019-01-02T09:06:25.565Z,65.81
2019-01-02T09:07:25.604Z,65.81
2019-01-02T09:08:25.577Z,65.81
2019-01-02T09:09:25.538Z,65.91
2019-01-02T09:10:25.523Z,66.78
2019-01-02T09:11:25.513Z,66.99
2019-01-02T09:12:25.501Z,70.41
2019-01-02T09:13:25.487Z,75.09
2019-01-02T09:14:25.490Z,77.92
2019-01-02T09:15:25.465Z,79.72
2019-01-02T09:16:25.455Z,81.63
2019-01-02T09:17:25.451Z,82.78
2019-01-02T09:18:25.440Z,83.23
2019-01-02T09:19:25.435Z,83.27
2019-01-02T09:20:25.415Z,84.63
2019-01-02T09:21:25.406Z,85.39
2019-01-02T09:22:25.391Z,87.06
2019-01-02T09:23:25.426Z,88.93
2019-01-02T09:24:25.374Z,88.62
2019-01-02T09:25:25.362Z,88.83
2019-01-02T09:26:25.352Z,88.93
2019-01-02T09:27:25.340Z,88.93
2019-01-02T09:28:25.332Z,89.35
2019-01-02T09:29:25.333Z,88.93
2019-01-02T09:30:25.311Z,88.52
2019-01-02T09:31:25.294Z,89.04
2019-01-02T09:32:25.293Z,87.16
2019-01-02T09:33:25.297Z,88.31
2019-01-02T09:34:25.267Z,88.31
2019-01-02T09:35:25.249Z,88.73
2019-01-02T09:36:25.239Z,88.58
2019-01-02T09:37:25.234Z,87.58
2019-01-02T09:38:25.228Z,86.91
2019-01-02T09:39:25.216Z,86.91
2019-01-02T09:40:25.205Z,87.06
2019-01-02T09:41:25.227Z,86.81
2019-01-02T09:42:25.182Z,86.50
2019-01-02T09:43:25.227Z,86.50
2019-01-02T09:44:25.165Z,86.40
2019-01-02T09:45:25.144Z,86.50
2019-01-02T09:46:25.181Z,86.19
2019-01-02T09:47:25.180Z,85.04
2019-01-02T09:48:25.110Z,85.35
2019-01-02T09:49:25.106Z,83.83
2019-01-02T09:50:25.091Z,83.62
2019-01-02T09:51:25.088Z,83.52
2019-01-02T09:52:25.100Z,83.94
2019-01-02T09:53:25.059Z,83.42
2019-01-02T09:54:25.046Z,83.83
2019-01-02T09:55:25.044Z,84.63
2019-01-02T09:56:25.025Z,83.31
2019-01-02T09:57:25.025Z,83.69
2019-01-02T09:58:25.013Z,83.58
2019-01-02T09:59:24.997Z,83.37
2019-01-02T10:00:24.988Z,84.21
2019-01-02T10:01:24.976Z,83.90
2019-01-02T10:02:24.972Z,83.80
2019-01-02T10:03:24.950Z,84.59
2019-01-02T10:04:24.942Z,86.04
2019-01-02T10:05:24.943Z,82.82
2019-01-02T10:06:24.924Z,82.82
2019-01-02T10:07:24.922Z,82.40
2019-01-02T10:08:24.938Z,81.88
2019-01-02T10:09:24.894Z,81.98
2019-01-02T10:10:24.877Z,82.51
2019-01-02T10:11:24.871Z,81.77
2019-01-02T10:12:24.861Z,82.20
2019-01-02T10:13:24.845Z,83.13
2019-01-02T10:14:24.856Z,83.13
2019-01-02T10:15:24.823Z,83.44
2019-01-02T10:16:24.821Z,83.13
2019-01-02T10:17:24.801Z,82.99
2019-01-02T10:18:24.794Z,82.89
2019-01-02T10:19:24.848Z,81.63
2019-01-02T10:20:24.771Z,81.74
2019-01-02T10:21:24.759Z,81.60
2019-01-02T10:22:24.747Z,82.68
2019-01-02T10:23:24.739Z,81.81
2019-01-02T10:24:24.737Z,81.29
2019-01-02T10:25:24.766Z,80.15
2019-01-02T10:26:24.716Z,80.42
2019-01-02T10:27:24.696Z,81.35
2019-01-02T10:28:24.684Z,82.04
2019-01-02T10:29:24.683Z,81.63
2019-01-02T10:30:24.661Z,80.55
2019-01-02T10:31:24.668Z,78.37
2019-01-02T10:32:24.646Z,78.37
2019-01-02T10:33:24.629Z,78.37
2019-01-02T10:34:24.625Z,77.64
2019-01-02T10:35:24.614Z,76.61
2019-01-02T10:36:24.607Z,76.61
2019-01-02T10:37:24.591Z,76.37
2019-01-02T10:38:24.582Z,76.37
2019-01-02T10:39:24.571Z,75.95
2019-01-02T10:40:24.556Z,76.26
2019-01-02T10:41:24.554Z,75.54
2019-01-02T10:42:24.544Z,74.77
2019-01-02T10:43:24.542Z,75.40
2019-01-02T10:44:24.517Z,75.67
2019-01-02T10:45:24.501Z,75.05
2019-01-02T10:46:24.501Z,74.22
2019-01-02T10:47:24.500Z,74.29
2019-01-02T10:48:24.473Z,74.29
2019-01-02T10:49:24.458Z,73.60
2019-01-02T10:50:24.454Z,72.67
2019-01-02T10:51:24.435Z,72.46
2019-01-02T10:52:24.565Z,72.63
2019-01-02T10:53:24.415Z,72.32
2019-01-02T10:54:24.422Z,71.91
2019-01-02T10:55:24.407Z,71.80
2019-01-02T10:56:24.388Z,71.80
2019-01-02T10:57:24.377Z,71.28
2019-01-02T10:58:24.369Z,71.91
2019-01-02T10:59:24.355Z,71.70
2019-01-02T11:00:24.355Z,71.28
2019-01-02T11:01:24.330Z,71.39
2019-01-02T11:02:24.345Z,70.76
2019-01-02T11:03:24.317Z,71.04
2019-01-02T11:04:24.303Z,70.87
2019-01-02T11:05:24.292Z,70.97
2019-01-02T11:06:24.278Z,71.08
2019-01-02T11:07:24.322Z,71.28
2019-01-02T11:08:24.255Z,71.67
2019-01-02T11:09:24.249Z,71.46
2019-01-02T11:10:24.238Z,70.01
2019-01-02T11:11:24.228Z,70.21
2019-01-02T11:12:24.210Z,69.77
2019-01-02T11:13:24.214Z,69.18
2019-01-02T11:14:24.208Z,68.56
2019-01-02T11:15:24.209Z,69.18
2019-01-02T11:16:24.182Z,68.56
2019-01-02T11:17:24.160Z,68.35
2019-01-02T11:18:24.148Z,69.21
2019-01-02T11:19:24.140Z,69.21
2019-01-02T11:20:24.138Z,68.41
2019-01-02T11:21:24.119Z,67.48
2019-01-02T11:22:24.119Z,67.35
2019-01-02T11:23:24.104Z,65.87
2019-01-02T11:24:24.087Z,64.73
2019-01-02T11:25:24.078Z,64.80
2019-01-02T11:26:24.074Z,63.46
2019-01-02T11:27:24.065Z,63.76
2019-01-02T11:28:24.048Z,63.46
2019-01-02T11:29:24.029Z,63.48
2019-01-02T11:30:24.016Z,63.90
2019-01-02T11:31:24.056Z,63.35
2019-01-02T11:32:24.000Z,62.66
2019-01-02T11:33:23.987Z,62.06
2019-01-02T11:34:23.972Z,62.99
2019-01-02T11:35:23.967Z,63.72
2019-01-02T11:36:23.951Z,63.72
2019-01-02T11:37:23.979Z,64.17
2019-01-02T11:38:23.935Z,63.13
2019-01-02T11:39:23.924Z,61.68
2019-01-02T11:40:23.916Z,61.68
2019-01-02T11:41:23.929Z,61.57
2019-01-02T11:42:23.889Z,60.95
2019-01-02T11:43:23.889Z,60.95
2019-01-02T11:44:23.866Z,61.44
2019-01-02T11:45:24.587Z,61.24
2019-01-02T11:46:23.862Z,61.03
2019-01-02T11:47:23.839Z,61.76
2019-01-02T11:48:23.849Z,61.31
2019-01-02T11:49:23.813Z,61.44
2019-01-02T11:50:23.812Z,59.78
2019-01-02T11:51:23.791Z,59.06
2019-01-02T11:52:23.789Z,58.93
2019-01-02T11:53:23.783Z,57.06
2019-01-02T11:54:23.758Z,58.07
2019-01-02T11:55:23.749Z,58.80
2019-01-02T11:56:23.742Z,58.51
2019-01-02T11:57:23.725Z,57.45
2019-01-02T11:58:23.728Z,56.41
2019-01-02T11:59:23.714Z,54.89
2019-01-02T12:00:23.699Z,53.54
2019-01-02T12:01:23.689Z,52.84
2019-01-02T12:02:23.673Z,52.45
2019-01-02T12:03:23.661Z,51.00
2019-01-02T12:04:23.669Z,51.52
2019-01-02T12:05:23.643Z,52.89
2019-01-02T12:06:23.629Z,54.42
2019-01-02T12:07:23.624Z,57.22
2019-01-02T12:08:23.610Z,53.98
2019-01-02T12:09:23.611Z,54.99
2019-01-02T12:10:23.600Z,53.25
2019-01-02T12:11:23.582Z,51.97
2019-01-02T12:12:23.629Z,51.09
2019-01-02T12:13:23.555Z,48.25
2019-01-02T12:14:23.549Z,45.13
2019-01-02T12:15:23.538Z,44.08
2019-01-02T12:16:23.522Z,43.44
2019-01-02T12:17:23.516Z,41.13
2019-01-02T12:18:23.511Z,40.17
2019-01-02T12:19:23.495Z,38.82
2019-01-02T12:20:23.484Z,38.81
2019-01-02T12:21:23.468Z,38.59
2019-01-02T12:22:23.473Z,38.15
2019-01-02T12:23:23.480Z,37.34
2019-01-02T12:24:23.437Z,37.19
2019-01-02T12:25:23.425Z,36.87
2019-01-02T12:26:23.421Z,36.03
2019-01-02T12:27:23.415Z,36.03
2019-01-02T12:28:23.400Z,35.18
2019-01-02T12:29:23.404Z,35.18
2019-01-02T12:30:23.380Z,35.27
2019-01-02T12:31:23.359Z,35.57
2019-01-02T12:32:23.354Z,33.81
2019-01-02T12:33:23.338Z,34.03
2019-01-02T12:34:23.341Z,33.12
2019-01-02T12:35:23.330Z,33.95
2019-01-02T12:36:23.315Z,33.74
2019-01-02T12:37:23.295Z,33.76
2019-01-02T12:38:23.284Z,33.04
2019-01-02T12:39:23.314Z,34.48
2019-01-02T12:40:23.263Z,34.59
2019-01-02T12:41:23.259Z,33.38
2019-01-02T12:42:23.244Z,34.92
2019-01-02T12:43:23.228Z,35.69
2019-01-02T12:44:23.217Z,36.03
2019-01-02T12:45:23.223Z,36.89
2019-01-02T12:46:23.196Z,36.68
2019-01-02T12:47:23.194Z,37.19
2019-01-02T12:48:23.181Z,36.16
2019-01-02T12:49:23.168Z,37.21
2019-01-02T12:50:23.170Z,36.49
2019-01-02T12:51:23.155Z,35.96
2019-01-02T12:52:23.142Z,36.99